createdAt,value
2019-05-21T00:01:06.007Z,16.07
2019-05-21T00:03:33.914Z,15.48
2019-05-21T00:06:01.907Z,14.43
2019-05-21T00:08:29.799Z,14.95
2019-05-21T00:10:57.722Z,14.93
2019-05-21T00:13:25.586Z,14.93
2019-05-21T00:15:53.595Z,14.70
2019-05-21T00:18:21.627Z,13.98
2019-05-21T00:20:49.617Z,13.65
2019-05-21T00:23:17.618Z,15.15
2019-05-21T00:25:45.624Z,12.60
2019-05-21T00:28:13.494Z,14.85
2019-05-21T00:30:42.235Z,15.00
2019-05-21T00:33:10.117Z,14.98
2019-05-21T00:35:47.492Z,13.53
2019-05-21T00:38:15.579Z,13.28
2019-05-21T00:40:43.625Z,15.08
2019-05-21T00:43:11.593Z,13.85
2019-05-21T00:45:39.455Z,13.88
2019-05-21T00:48:07.382Z,13.95
2019-05-21T00:50:35.385Z,13.65
2019-05-21T00:53:03.296Z,13.68
2019-05-21T00:55:31.210Z,13.90
2019-05-21T00:57:59.186Z,13.35
2019-05-21T01:00:27.190Z,12.98
2019-05-21T01:02:55.087Z,13.15
2019-05-21T01:05:22.981Z,13.05
2019-05-21T01:07:50.905Z,12.60
2019-05-21T01:10:18.924Z,12.55
2019-05-21T01:12:47.345Z,12.35
2019-05-21T01:15:15.275Z,12.37
2019-05-21T01:17:43.260Z,12.05
2019-05-21T01:20:11.304Z,11.55
2019-05-21T01:22:39.242Z,10.25
2019-05-21T01:25:07.208Z,11.03
2019-05-21T01:27:35.123Z,11.22
2019-05-21T01:30:03.077Z,10.63
2019-05-21T01:32:31.805Z,10.80
2019-05-21T01:35:14.634Z,9.98
2019-05-21T01:37:29.808Z,9.70
2019-05-21T01:39:57.813Z,11.25
2019-05-21T01:42:25.796Z,11.33
2019-05-21T01:44:53.663Z,9.68
2019-05-21T01:47:21.691Z,9.88
2019-05-21T01:49:49.737Z,10.38
2019-05-21T01:52:17.810Z,10.53
2019-05-21T01:54:45.768Z,9.53
2019-05-21T01:57:13.802Z,10.90
2019-05-21T01:59:41.778Z,10.35
2019-05-21T02:02:09.746Z,10.20
2019-05-21T02:04:38.081Z,9.85
2019-05-21T02:07:06.108Z,9.35
2019-05-21T02:09:35.724Z,10.55
2019-05-21T02:12:03.629Z,9.65
2019-05-21T02:14:31.595Z,9.75
2019-05-21T02:16:59.622Z,9.50
2019-05-21T02:19:27.588Z,9.78
2019-05-21T02:21:55.633Z,9.43
2019-05-21T02:24:23.633Z,9.03
2019-05-21T02:26:51.530Z,9.15
2019-05-21T02:29:19.455Z,8.45
2019-05-21T02:31:48.402Z,8.65
2019-05-21T02:34:16.287Z,8.53
2019-05-21T02:36:44.198Z,7.42
2019-05-21T02:39:12.202Z,9.35
2019-05-21T02:41:40.129Z,8.28
2019-05-21T02:44:08.052Z,9.00
2019-05-21T02:46:36.026Z,8.80
2019-05-21T02:49:03.975Z,8.88
2019-05-21T02:51:31.895Z,8.10
2019-05-21T02:53:59.935Z,8.05
2019-05-21T02:56:27.895Z,8.80
2019-05-21T02:58:55.734Z,9.28
2019-05-21T03:01:32.836Z,8.90
2019-05-21T03:04:00.794Z,8.90
2019-05-21T03:06:28.692Z,9.00
2019-05-21T03:08:56.589Z,8.98
2019-05-21T03:11:24.560Z,9.40
2019-05-21T03:13:52.436Z,7.58
2019-05-21T03:16:20.350Z,8.55
2019-05-21T03:18:48.326Z,8.03
2019-05-21T03:21:16.371Z,8.30
2019-05-21T03:23:44.614Z,8.33
2019-05-21T03:26:12.614Z,7.80
2019-05-21T03:28:40.584Z,8.28
2019-05-21T03:31:08.518Z,8.50
2019-05-21T03:33:36.536Z,8.00
2019-05-21T03:36:04.415Z,9.15
2019-05-21T03:38:32.373Z,8.18
2019-05-21T03:41:00.280Z,8.00
2019-05-21T03:43:28.495Z,7.58
2019-05-21T03:45:56.471Z,8.80
2019-05-21T03:48:24.536Z,8.30
2019-05-21T03:50:52.570Z,8.40
2019-05-21T03:53:20.460Z,8.45
2019-05-21T03:55:48.375Z,8.90
2019-05-21T03:58:16.345Z,8.73
2019-05-21T04:00:44.295Z,9.43
2019-05-21T04:03:12.284Z,9.15
2019-05-21T04:05:40.138Z,9.60
2019-05-21T04:08:07.992Z,9.70
2019-05-21T04:10:35.898Z,10.03
2019-05-21T04:13:09.922Z,9.10
2019-05-21T04:15:43.365Z,9.58
2019-05-21T04:18:16.132Z,10.55
2019-05-21T04:20:44.099Z,11.28
2019-05-21T04:23:12.057Z,10.98
2019-05-21T04:25:40.027Z,10.48
2019-05-21T04:28:08.070Z,10.43
2019-05-21T04:30:36.147Z,10.88
2019-05-21T04:33:04.220Z,10.82
2019-05-21T04:35:32.201Z,11.75
2019-05-21T04:38:00.077Z,11.85
2019-05-21T04:40:28.172Z,11.48
2019-05-21T04:42:56.140Z,11.63
2019-05-21T04:45:24.323Z,11.83
2019-05-21T04:47:52.228Z,12.45
2019-05-21T04:50:20.137Z,11.55
2019-05-21T04:52:48.117Z,12.07
2019-05-21T04:55:16.106Z,11.45
2019-05-21T04:57:44.096Z,12.10
2019-05-21T05:00:12.204Z,12.50
2019-05-21T05:02:40.186Z,12.33
2019-05-21T05:05:08.060Z,13.05
2019-05-21T05:07:35.958Z,13.30
2019-05-21T05:10:03.833Z,11.80
2019-05-21T05:12:31.763Z,12.07
2019-05-21T05:14:59.747Z,11.88
2019-05-21T05:17:27.669Z,11.65
2019-05-21T05:19:55.620Z,15.53
2019-05-21T05:22:23.553Z,12.40
2019-05-21T05:24:51.503Z,11.53
2019-05-21T05:27:19.422Z,11.93
2019-05-21T05:29:47.293Z,11.20
2019-05-21T05:32:15.182Z,10.60
2019-05-21T05:34:43.039Z,10.48
2019-05-21T05:37:10.927Z,10.48
2019-05-21T05:39:38.788Z,10.18
2019-05-21T05:42:06.674Z,9.65
2019-05-21T05:44:34.565Z,8.65
2019-05-21T05:47:02.531Z,8.03
2019-05-21T05:49:35.301Z,8.40
2019-05-21T05:52:03.187Z,8.30
2019-05-21T05:54:31.124Z,7.22
2019-05-21T05:56:59.024Z,6.70
2019-05-21T05:59:27.016Z,6.90
2019-05-21T06:01:54.943Z,7.20
2019-05-21T06:04:22.776Z,7.47
2019-05-21T06:06:50.687Z,7.50
2019-05-21T06:09:18.584Z,7.78
2019-05-21T06:11:46.436Z,5.70
2019-05-21T06:14:14.428Z,5.22
2019-05-21T06:16:42.313Z,5.12
2019-05-21T06:19:10.459Z,4.60
2019-05-21T06:21:38.317Z,6.58
2019-05-21T06:24:06.254Z,7.97
2019-05-21T06:26:34.227Z,7.40
2019-05-21T06:29:02.139Z,6.50
2019-05-21T06:31:30.094Z,14.03
2019-05-21T06:33:58.081Z,29.60
2019-05-21T06:36:26.060Z,19.10
2019-05-21T06:38:54.028Z,22.65
2019-05-21T06:41:22.000Z,15.65
2019-05-21T06:43:49.894Z,18.15
2019-05-21T06:46:17.793Z,41.58
2019-05-21T06:48:45.828Z,31.05
2019-05-21T06:51:13.720Z,33.08
2019-05-21T06:53:41.689Z,16.77
2019-05-21T06:56:09.590Z,20.75
2019-05-21T06:58:37.465Z,47.73
2019-05-21T07:01:05.756Z,51.85
2019-05-21T07:03:33.655Z,33.18
2019-05-21T07:06:01.667Z,11.15
2019-05-21T07:08:34.489Z,7.25
2019-05-21T07:10:59.147Z,5.85
2019-05-21T07:13:30.782Z,5.17
2019-05-21T07:15:56.655Z,4.83
2019-05-21T07:18:24.542Z,5.05
2019-05-21T07:20:52.395Z,5.42
2019-05-21T07:23:20.416Z,4.90
2019-05-21T07:25:48.297Z,5.08
2019-05-21T07:28:16.197Z,4.65
2019-05-21T07:30:44.076Z,4.08
2019-05-21T07:33:12.029Z,3.95
2019-05-21T07:35:39.901Z,3.62
2019-05-21T07:38:07.777Z,3.90
2019-05-21T07:40:35.711Z,3.20
2019-05-21T07:43:03.628Z,3.02
2019-05-21T07:45:31.583Z,2.98
2019-05-21T07:47:59.569Z,3.05
2019-05-21T07:50:27.498Z,3.22
2019-05-21T07:52:55.377Z,3.10
2019-05-21T07:55:23.253Z,3.00
2019-05-21T07:57:51.171Z,2.85
2019-05-21T08:00:19.128Z,2.70
2019-05-21T08:02:47.291Z,2.90
2019-05-21T08:05:15.234Z,2.87
2019-05-21T08:07:43.109Z,2.58
2019-05-21T08:10:10.991Z,2.70
2019-05-21T08:12:39.963Z,2.77
2019-05-21T08:15:08.174Z,3.33
2019-05-21T08:17:36.119Z,3.37
2019-05-21T08:20:09.201Z,3.25
2019-05-21T08:22:33.722Z,3.35
2019-05-21T08:25:01.751Z,3.20
2019-05-21T08:27:29.728Z,3.10
2019-05-21T08:29:57.716Z,3.50
2019-05-21T08:32:25.592Z,3.15
2019-05-21T08:34:53.606Z,3.50
2019-05-21T08:37:21.549Z,3.20
2019-05-21T08:39:49.538Z,3.42
2019-05-21T08:42:19.303Z,3.20
2019-05-21T08:44:47.273Z,5.30
2019-05-21T08:47:15.242Z,6.10
2019-05-21T08:49:44.243Z,3.85
2019-05-21T08:52:12.449Z,4.55
2019-05-21T08:54:56.265Z,3.35
2019-05-21T08:57:22.587Z,3.80
2019-05-21T08:59:50.568Z,4.65
2019-05-21T09:02:18.654Z,3.85
2019-05-21T09:04:46.957Z,5.20
2019-05-21T09:07:17.049Z,4.10
2019-05-21T09:09:50.786Z,2.98
2019-05-21T09:12:17.698Z,3.47
2019-05-21T09:14:45.617Z,3.22
2019-05-21T09:17:13.584Z,3.10
2019-05-21T09:19:41.601Z,3.52
2019-05-21T09:22:09.572Z,3.30
2019-05-21T09:24:40.402Z,3.85
2019-05-21T09:27:08.279Z,3.60
2019-05-21T09:29:36.316Z,3.30
2019-05-21T09:32:04.284Z,2.90
2019-05-21T09:34:47.381Z,4.22
2019-05-21T09:37:02.307Z,3.45
2019-05-21T09:39:30.237Z,3.33
2019-05-21T09:41:58.309Z,2.83
2019-05-21T09:44:26.405Z,3.05
2019-05-21T09:46:54.722Z,2.85
2019-05-21T09:49:22.753Z,3.60
2019-05-21T09:51:50.713Z,5.40
2019-05-21T09:54:18.879Z,7.40
2019-05-21T09:56:47.084Z,6.08
2019-05-21T09:59:34.107Z,6.75
2019-05-21T10:02:08.496Z,14.38
2019-05-21T10:04:38.497Z,11.83
2019-05-21T10:07:06.590Z,13.05
2019-05-21T10:09:34.864Z,13.65
2019-05-21T10:12:03.016Z,16.42
2019-05-21T10:14:34.088Z,13.28
2019-05-21T10:17:00.975Z,14.75
2019-05-21T10:19:29.100Z,12.55
2019-05-21T10:21:58.570Z,6.67
2019-05-21T10:24:27.563Z,3.90
2019-05-21T10:26:57.635Z,3.25
2019-05-21T10:29:26.543Z,3.80
2019-05-21T10:31:57.980Z,3.90
2019-05-21T10:34:27.371Z,3.70
2019-05-21T10:36:57.855Z,3.80
2019-05-21T10:39:32.143Z,3.77
2019-05-21T10:42:00.319Z,3.40
2019-05-21T10:44:34.389Z,3.75
2019-05-21T10:47:02.569Z,3.58
2019-05-21T10:49:30.677Z,3.33
2019-05-21T10:52:01.029Z,3.08
2019-05-21T10:54:29.256Z,4.25
2019-05-21T10:56:57.350Z,4.20
2019-05-21T10:59:25.423Z,3.50
2019-05-21T11:02:26.544Z,3.65
2019-05-21T11:05:05.516Z,3.42
2019-05-21T11:07:33.581Z,3.45
2019-05-21T11:10:01.627Z,3.50
2019-05-21T11:12:31.469Z,4.03
2019-05-21T11:14:59.614Z,3.70
2019-05-21T11:17:27.736Z,3.60
2019-05-21T11:20:00.574Z,3.50
2019-05-21T11:22:28.736Z,3.20
2019-05-21T11:24:56.943Z,3.37
2019-05-21T11:27:25.066Z,3.17
2019-05-21T11:29:53.169Z,3.58
2019-05-21T11:32:22.782Z,3.10
2019-05-21T11:34:55.767Z,3.40
2019-05-21T11:37:23.908Z,3.58
2019-05-21T11:39:52.074Z,3.62
2019-05-21T11:42:20.050Z,3.55
2019-05-21T11:44:53.718Z,3.27
2019-05-21T11:47:21.834Z,4.40
2019-05-21T11:49:49.987Z,3.95
2019-05-21T11:52:18.242Z,3.52
2019-05-21T11:54:49.124Z,3.33
2019-05-21T11:57:18.348Z,4.00
2019-05-21T11:59:46.414Z,3.83
2019-05-21T12:02:15.580Z,3.98
2019-05-21T12:05:02.490Z,3.60
2019-05-21T12:07:32.110Z,3.60
2019-05-21T12:10:01.276Z,3.20
2019-05-21T12:12:29.384Z,3.37
2019-05-21T12:14:58.595Z,3.52
2019-05-21T12:17:27.791Z,4.15
2019-05-21T12:19:55.921Z,3.40
2019-05-21T12:22:25.365Z,3.10
2019-05-21T12:24:53.623Z,3.08
2019-05-21T12:27:23.222Z,3.00
2019-05-21T12:29:51.228Z,2.95
2019-05-21T12:32:20.938Z,2.77
2019-05-21T12:34:53.764Z,3.47
2019-05-21T12:37:23.429Z,3.40
2019-05-21T12:39:51.695Z,3.52
2019-05-21T12:42:22.566Z,3.00
2019-05-21T12:44:53.568Z,3.17
2019-05-21T12:47:21.675Z,3.15
2019-05-21T12:49:49.846Z,2.90
2019-05-21T12:52:19.290Z,2.80
2019-05-21T12:54:47.277Z,3.00
2019-05-21T12:57:16.483Z,2.62
2019-05-21T12:59:44.440Z,2.60
2019-05-21T13:02:12.490Z,2.90
2019-05-21T13:04:40.563Z,2.40
2019-05-21T13:07:27.632Z,2.10
2019-05-21T13:09:55.759Z,2.10
2019-05-21T13:12:23.903Z,2.02
2019-05-21T13:14:51.818Z,2.10
2019-05-21T13:17:21.656Z,1.77
2019-05-21T13:19:49.649Z,1.85
2019-05-21T13:22:19.975Z,2.15
2019-05-21T13:24:48.001Z,2.00
2019-05-21T13:27:18.326Z,2.52
2019-05-21T13:29:46.492Z,1.95
2019-05-21T13:32:14.720Z,2.00
2019-05-21T13:34:42.673Z,2.22
2019-05-21T13:37:10.666Z,2.10
2019-05-21T13:39:49.432Z,2.27
2019-05-21T13:42:08.322Z,2.10
2019-05-21T13:44:36.303Z,2.00
2019-05-21T13:47:04.327Z,2.12
2019-05-21T13:49:32.269Z,2.20
2019-05-21T13:52:00.264Z,2.17
2019-05-21T13:54:28.153Z,2.55
2019-05-21T13:56:56.185Z,2.27
2019-05-21T13:59:24.304Z,2.62
2019-05-21T14:01:52.155Z,2.60
2019-05-21T14:04:20.167Z,2.90
2019-05-21T14:06:48.048Z,2.58
2019-05-21T14:09:15.944Z,2.90
2019-05-21T14:11:44.032Z,3.00
2019-05-21T14:14:12.186Z,3.37
2019-05-21T14:16:40.135Z,3.72
2019-05-21T14:19:08.160Z,3.37
2019-05-21T14:21:36.228Z,3.42
2019-05-21T14:24:04.337Z,3.30
2019-05-21T14:26:32.308Z,3.72
2019-05-21T14:29:00.303Z,3.90
2019-05-21T14:31:28.321Z,4.17
2019-05-21T14:33:58.275Z,4.30
2019-05-21T14:36:26.061Z,3.98
2019-05-21T14:38:56.330Z,4.60
2019-05-21T14:49:58.070Z,4.75
2019-05-21T14:52:26.160Z,4.10
2019-05-21T14:54:54.108Z,4.72
2019-05-21T14:57:22.101Z,4.72
2019-05-21T14:59:50.135Z,4.90
2019-05-21T15:02:18.145Z,4.25
2019-05-21T15:04:46.488Z,4.42
2019-05-21T15:07:16.795Z,4.87
2019-05-21T15:09:44.900Z,4.83
2019-05-21T15:12:15.728Z,4.80
2019-05-21T15:14:43.775Z,4.97
2019-05-21T15:17:11.939Z,5.72
2019-05-21T15:19:41.517Z,5.03
2019-05-21T15:22:09.484Z,5.08
2019-05-21T15:24:39.038Z,5.50
2019-05-21T15:27:07.065Z,5.85
2019-05-21T15:29:35.032Z,5.33
2019-05-21T15:32:03.129Z,5.00
2019-05-21T15:34:31.524Z,5.08
2019-05-21T15:37:03.996Z,4.87
2019-05-21T15:39:33.840Z,5.00
2019-05-21T15:42:01.937Z,5.30
2019-05-21T15:44:30.373Z,5.53
2019-05-21T15:46:58.445Z,5.22
2019-05-21T15:49:35.756Z,5.60
2019-05-21T15:51:57.368Z,5.70
2019-05-21T15:54:28.387Z,5.55
2019-05-21T15:56:56.350Z,5.30
2019-05-21T15:59:24.236Z,5.83
2019-05-21T16:01:53.172Z,6.72
2019-05-21T16:04:21.089Z,7.22
2019-05-21T16:06:48.992Z,6.85
2019-05-21T16:09:16.905Z,7.45
2019-05-21T16:11:45.186Z,9.63
2019-05-21T16:14:13.265Z,9.90
2019-05-21T16:16:41.303Z,8.80
2019-05-21T16:19:09.307Z,9.50
2019-05-21T16:21:37.285Z,8.40
2019-05-21T16:24:05.194Z,8.48
2019-05-21T16:26:33.048Z,9.53
2019-05-21T16:29:00.946Z,9.28
2019-05-21T16:31:28.882Z,9.35
2019-05-21T16:33:57.128Z,8.68
2019-05-21T16:36:25.170Z,8.68
2019-05-21T16:38:53.367Z,8.48
2019-05-21T16:41:24.569Z,7.97
2019-05-21T16:43:53.667Z,9.23
2019-05-21T16:46:22.068Z,9.35
2019-05-21T16:48:50.119Z,8.90
2019-05-21T16:51:18.079Z,9.05
2019-05-21T16:53:45.960Z,8.60
2019-05-21T16:56:13.847Z,9.38
2019-05-21T16:58:41.742Z,8.65
2019-05-21T17:01:09.676Z,8.08
2019-05-21T17:03:37.655Z,7.50
2019-05-21T17:06:07.175Z,8.00
2019-05-21T17:08:35.218Z,8.85
2019-05-21T17:11:03.315Z,9.40
2019-05-21T17:13:31.511Z,8.93
2019-05-21T17:15:59.538Z,7.90
2019-05-21T17:18:30.697Z,8.00
2019-05-21T17:20:58.793Z,9.25
2019-05-21T17:23:26.836Z,8.75
2019-05-21T17:25:55.061Z,9.15
2019-05-21T17:28:24.658Z,9.68
2019-05-21T17:30:55.083Z,9.25
2019-05-21T17:33:24.583Z,11.05
2019-05-21T17:35:52.597Z,10.55
2019-05-21T17:38:20.595Z,64.32
2019-05-21T17:40:48.594Z,45.00
2019-05-21T17:43:16.639Z,32.38
2019-05-21T17:45:44.669Z,26.17
2019-05-21T17:48:12.649Z,15.85
2019-05-21T17:50:40.665Z,13.43
2019-05-21T17:53:08.524Z,14.47
2019-05-21T17:55:36.431Z,11.93
2019-05-21T17:58:04.448Z,11.65
2019-05-21T18:00:54.268Z,13.28
2019-05-21T18:03:22.701Z,12.40
2019-05-21T18:05:51.158Z,12.18
2019-05-21T18:08:19.291Z,11.38
2019-05-21T18:10:47.465Z,13.65
2019-05-21T18:13:16.412Z,12.70
2019-05-21T18:15:44.492Z,14.68
2019-05-21T18:18:12.453Z,13.55
2019-05-21T18:20:40.854Z,13.00
2019-05-21T18:23:08.964Z,14.53
2019-05-21T18:25:36.833Z,12.45
2019-05-21T18:28:04.799Z,12.23
2019-05-21T18:30:34.450Z,13.25
2019-05-21T18:33:04.281Z,13.50
2019-05-21T18:35:35.388Z,12.40
2019-05-21T18:38:03.368Z,13.32
2019-05-21T18:40:31.296Z,12.40
2019-05-21T18:42:59.230Z,11.35
2019-05-21T18:45:27.133Z,14.60
2019-05-21T18:47:55.181Z,15.15
2019-05-21T18:50:35.512Z,12.45
2019-05-21T18:52:52.976Z,13.90
2019-05-21T18:55:21.133Z,14.90
2019-05-21T18:57:49.145Z,17.00
2019-05-21T19:00:17.112Z,14.78
2019-05-21T19:02:45.141Z,15.05
2019-05-21T19:05:13.218Z,14.50
2019-05-21T19:07:42.154Z,14.93
2019-05-21T19:10:11.539Z,17.65
2019-05-21T19:12:39.525Z,16.90
2019-05-21T19:15:10.486Z,17.87
2019-05-21T19:17:38.553Z,17.07
2019-05-21T19:20:08.683Z,16.07
2019-05-21T19:22:36.753Z,22.17
2019-05-21T19:25:06.528Z,18.48
2019-05-21T19:27:34.720Z,18.30
2019-05-21T19:30:02.877Z,19.87
2019-05-21T19:32:35.517Z,19.57
2019-05-21T19:35:03.590Z,18.35
2019-05-21T19:37:31.608Z,17.48
2019-05-21T19:39:59.768Z,19.65
2019-05-21T19:42:27.970Z,21.95
2019-05-21T19:44:56.007Z,18.60
2019-05-21T19:47:29.418Z,17.02
2019-05-21T19:49:58.454Z,20.17
2019-05-21T19:52:45.416Z,19.20
2019-05-21T19:55:13.409Z,18.92
2019-05-21T19:57:41.643Z,18.02
2019-05-21T20:00:09.551Z,18.75
2019-05-21T20:02:37.673Z,18.65
2019-05-21T20:05:05.794Z,19.48
2019-05-21T20:07:36.342Z,21.60
2019-05-21T20:10:11.202Z,20.68
2019-05-21T20:12:36.045Z,20.00
2019-05-21T20:15:06.159Z,23.10
2019-05-21T20:17:38.165Z,16.80
2019-05-21T20:20:12.691Z,18.67
2019-05-21T20:22:43.259Z,20.90
2019-05-21T20:25:11.634Z,20.17
2019-05-21T20:27:39.727Z,20.65
2019-05-21T20:30:12.820Z,20.50
2019-05-21T20:32:39.827Z,22.30
2019-05-21T20:35:08.914Z,18.17
2019-05-21T20:37:38.551Z,20.27
2019-05-21T20:40:08.082Z,21.00
2019-05-21T20:42:36.112Z,17.90
2019-05-21T20:45:04.119Z,19.65
2019-05-21T20:47:32.178Z,21.33
2019-05-21T20:50:00.194Z,22.20
2019-05-21T20:52:28.460Z,21.65
2019-05-21T20:54:57.170Z,19.45
2019-05-21T20:57:25.074Z,19.10
2019-05-21T20:59:53.251Z,22.13
2019-05-21T21:02:21.223Z,21.35
2019-05-21T21:04:49.137Z,21.00
2019-05-21T21:07:17.746Z,19.23
2019-05-21T21:09:45.997Z,21.37
2019-05-21T21:12:15.137Z,21.05
2019-05-21T21:14:43.201Z,19.20
2019-05-21T21:17:12.690Z,18.37
2019-05-21T21:19:40.661Z,19.95
2019-05-21T21:22:08.565Z,20.70
2019-05-21T21:24:36.455Z,21.55
2019-05-21T21:27:07.917Z,22.52
2019-05-21T21:29:35.797Z,22.02
2019-05-21T21:32:03.804Z,20.23
2019-05-21T21:34:31.774Z,19.90
2019-05-21T21:37:00.005Z,18.95
2019-05-21T21:39:28.281Z,21.23
2019-05-21T21:41:57.438Z,20.20
2019-05-21T21:44:34.050Z,21.30
2019-05-21T21:46:55.650Z,21.90
2019-05-21T21:49:25.454Z,22.40
2019-05-21T21:51:53.448Z,22.25
2019-05-21T21:54:21.812Z,19.45
2019-05-21T21:56:49.873Z,20.40
2019-05-21T21:59:17.920Z,23.22
2019-05-21T22:01:50.075Z,23.00
2019-05-21T22:04:18.058Z,21.57
2019-05-21T22:06:46.200Z,21.37
2019-05-21T22:09:19.759Z,22.32
2019-05-21T22:11:47.757Z,22.45
2019-05-21T22:14:15.656Z,19.30
2019-05-21T22:16:44.332Z,21.50
2019-05-21T22:19:12.442Z,21.17
2019-05-21T22:21:40.487Z,20.65
2019-05-21T22:24:08.822Z,21.90
2019-05-21T22:26:36.739Z,20.32
2019-05-21T22:29:04.682Z,21.37
2019-05-21T22:31:32.569Z,17.57
2019-05-21T22:34:00.671Z,17.70
2019-05-21T22:36:29.072Z,20.12
2019-05-21T22:38:57.040Z,20.57
2019-05-21T22:41:25.289Z,19.20
2019-05-21T22:43:53.318Z,21.05
2019-05-21T22:46:21.299Z,18.90
2019-05-21T22:48:49.168Z,18.90
2019-05-21T22:51:17.130Z,21.55
2019-05-21T22:53:45.116Z,20.27
2019-05-21T22:56:13.076Z,19.40
2019-05-21T22:58:40.950Z,18.48
2019-05-21T23:01:10.741Z,19.17
2019-05-21T23:03:38.662Z,17.50
2019-05-21T23:06:06.651Z,16.75
2019-05-21T23:08:35.193Z,18.50
2019-05-21T23:11:03.234Z,18.12
2019-05-21T23:13:31.256Z,17.67
2019-05-21T23:15:59.716Z,15.95
2019-05-21T23:18:27.602Z,16.05
2019-05-21T23:20:55.490Z,18.10
2019-05-21T23:23:23.540Z,19.65
2019-05-21T23:25:51.411Z,20.15
2019-05-21T23:28:19.391Z,18.32
2019-05-21T23:30:47.790Z,18.80
2019-05-21T23:33:15.952Z,18.20
2019-05-21T23:35:44.063Z,19.12
2019-05-21T23:38:13.131Z,18.10
2019-05-21T23:40:42.121Z,18.98
2019-05-21T23:43:10.371Z,18.70
2019-05-21T23:45:38.627Z,20.75
2019-05-21T23:48:08.156Z,19.25
2019-05-21T23:50:36.075Z,22.00
2019-05-21T23:53:04.123Z,19.90
2019-05-21T23:55:32.011Z,19.62
2019-05-21T23:57:59.903Z,18.37
